Time;durP1;ratioP1;P1;durP2;ratioP2;P2;SDS_P1;SDS_P2;PMS_P1;PMS_P2;Temp;Humidity;BMP_temperature;BMP_pressure;BME280_temperature;BME280_humidity;BME280_pressure;Samples;Min_cycle;Max_cycle;Signal;HPM_P1;HPM_P2
2022/09/13 00:01:24;;;;;;;11.80;5.30;;;;;;;12.08;75.87;98770.35;105932;1273;112268;-63
2022/09/13 00:03:55;;;;;;;11.40;5.40;;;;;;;12.08;76.05;98772.79;106120;1274;96530;-64
2022/09/13 00:06:25;;;;;;;13.10;6.20;;;;;;;12.07;76.11;98770.88;106131;1273;108859;-64
2022/09/13 00:08:53;;;;;;;13.60;6.10;;;;;;;12.08;75.84;98767.15;105992;1273;97989;-66
2022/09/13 00:11:26;;;;;;;15.30;6.00;;;;;;;12.06;75.83;98763.33;106011;1273;96334;-65
2022/09/13 00:13:57;;;;;;;12.10;5.70;;;;;;;12.06;75.94;98765.27;106063;1273;111392;-63
2022/09/13 00:16:28;;;;;;;12.90;5.50;;;;;;;12.07;76.05;98765.77;106101;1274;96381;-64
2022/09/13 00:19:00;;;;;;;14.30;6.00;;;;;;;12.09;76.04;98769.37;105949;1273;109261;-63
2022/09/13 00:21:27;;;;;;;14.30;5.80;;;;;;;12.10;75.99;98768.39;105987;1273;95293;-66
2022/09/13 00:23:58;;;;;;;16.40;5.80;;;;;;;12.10;76.02;98768.90;106057;1273;97967;-64
2022/09/13 00:26:28;;;;;;;18.00;6.20;;;;;;;12.10;76.00;98769.43;106077;1274;110579;-66
2022/09/13 00:28:59;;;;;;;12.50;5.70;;;;;;;12.10;75.98;98767.12;106090;1273;95442;-64
2022/09/13 00:31:28;;;;;;;12.80;5.60;;;;;;;12.10;76.02;98766.34;105949;1273;108195;-63
2022/09/13 00:33:59;;;;;;;13.30;5.80;;;;;;;12.12;76.07;98767.86;105968;1273;95271;-66
2022/09/13 00:36:29;;;;;;;17.10;6.00;;;;;;;12.13;76.13;98764.71;106048;1273;96980;-64
2022/09/13 00:39:00;;;;;;;14.70;5.70;;;;;;;12.15;75.93;98766.02;106050;1273;111140;-65
2022/09/13 00:41:29;;;;;;;13.00;5.70;;;;;;;12.15;76.17;98765.65;106068;1273;97953;-64
2022/09/13 00:44:00;;;;;;;10.90;5.70;;;;;;;12.15;76.07;98766.20;106049;1273;107328;-63
2022/09/13 00:46:41;;;;;;;15.10;6.20;;;;;;;12.15;76.02;98767.96;106038;1273;97908;-64
2022/09/13 00:49:18;;;;;;;15.00;5.90;;;;;;;12.13;76.00;98765.61;106135;1273;97857;-65
2022/09/13 00:51:56;;;;;;;15.90;6.10;;;;;;;12.10;75.91;98764.42;106079;1273;110949;-65
2022/09/13 00:54:32;;;;;;;13.00;6.10;;;;;;;12.08;75.93;98760.55;106087;1274;97901;-64
2022/09/13 00:57:03;;;;;;;14.80;6.40;;;;;;;12.06;75.98;98765.10;106075;1273;107704;-66
2022/09/13 00:59:55;;;;;;;12.50;5.90;;;;;;;12.06;76.16;98761.77;106131;1273;97954;-66
2022/09/13 01:02:25;;;;;;;16.00;5.80;;;;;;;12.07;76.12;98763.83;106104;1274;96409;-63
2022/09/13 01:04:55;;;;;;;17.10;6.60;;;;;;;12.08;76.09;98765.85;106027;1273;111786;-64
2022/09/13 01:07:23;;;;;;;16.30;6.00;;;;;;;12.10;76.10;98770.00;106013;1274;96289;-64
2022/09/13 01:09:53;;;;;;;14.20;5.80;;;;;;;12.11;76.11;98770.43;106115;1274;108415;-66
2022/09/13 01:12:43;;;;;;;14.00;6.60;;;;;;;12.11;75.99;98766.69;106039;1273;97966;-65
2022/09/13 01:15:13;;;;;;;14.10;6.40;;;;;;;12.11;76.06;98767.70;105981;1273;97862;-65
2022/09/13 01:17:43;;;;;;;17.70;6.40;;;;;;;12.12;76.07;98767.46;106063;1274;112504;-65
2022/09/13 01:20:14;;;;;;;13.60;6.60;;;;;;;12.14;76.06;98767.71;106016;1273;95237;-65
2022/09/13 01:23:10;;;;;;;14.90;6.50;;;;;;;12.13;76.11;98766.13;105925;1273;108801;-65
2022/09/13 01:26:03;;;;;;;14.60;6.30;;;;;;;12.14;76.12;98768.18;106021;1274;97936;-68
2022/09/13 01:28:50;;;;;;;14.40;6.60;;;;;;;12.16;76.07;98769.85;106123;1274;97959;-67
2022/09/13 01:31:59;;;;;;;16.30;7.00;;;;;;;12.17;76.12;98772.23;106118;1274;112089;-63
2022/09/13 01:35:09;;;;;;;13.20;6.40;;;;;;;12.17;76.11;98780.55;106030;1273;97968;-64
2022/09/13 01:38:09;;;;;;;14.20;6.70;;;;;;;12.18;76.12;98779.92;105991;1273;108177;-64
2022/09/13 01:40:51;;;;;;;15.90;7.70;;;;;;;12.20;76.14;98780.15;105933;1274;96655;-63
2022/09/13 01:43:46;;;;;;;16.10;7.30;;;;;;;12.21;76.15;98779.52;105965;1273;95287;-63
2022/09/13 01:46:45;;;;;;;16.70;7.90;;;;;;;12.23;76.18;98778.15;106088;1274;111970;-63
2022/09/13 01:49:41;;;;;;;17.20;7.50;;;;;;;12.24;76.09;98776.08;105936;1273;95569;-63
2022/09/13 01:52:24;;;;;;;19.80;8.60;;;;;;;12.24;76.15;98774.61;105956;1273;108371;-64
2022/09/13 01:54:57;;;;;;;20.50;8.50;;;;;;;12.25;76.10;98770.46;106058;1273;97863;-66
2022/09/13 01:57:32;;;;;;;21.00;9.00;;;;;;;12.26;76.03;98764.58;106030;1273;97944;-65
2022/09/13 02:00:13;;;;;;;21.30;8.90;;;;;;;12.26;76.13;98762.62;106133;1274;112088;-66
2022/09/13 02:03:04;;;;;;;19.30;8.80;;;;;;;12.25;76.07;98759.33;106035;1273;97867;-66
2022/09/13 02:05:38;;;;;;;18.80;8.60;;;;;;;12.24;76.09;98758.80;105997;1273;107430;-64
2022/09/13 02:08:13;;;;;;;;;;;;;;;12.24;76.12;98756.01;105998;1273;97905;-62
2022/09/13 02:10:50;;;;;;;18.40;8.90;;;;;;;12.21;76.19;98749.11;105979;1273;97978;-63
2022/09/13 02:13:26;;;;;;;20.50;9.00;;;;;;;12.23;76.08;98747.19;105962;1273;112381;-65
2022/09/13 02:16:05;;;;;;;19.00;8.80;;;;;;;12.24;76.20;98738.38;106087;1273;97986;-66
2022/09/13 02:18:42;;;;;;;19.30;8.00;;;;;;;12.25;76.12;98736.73;106041;1273;108436;-65
2022/09/13 02:21:22;;;;;;;19.30;8.50;;;;;;;12.26;76.08;98737.17;106093;1274;96323;-64
2022/09/13 02:23:54;;;;;;;21.00;9.70;;;;;;;12.26;76.09;98735.36;106103;1274;97863;-63
2022/09/13 02:26:24;;;;;;;19.00;8.60;;;;;;;12.25;76.17;98733.14;106052;1273;111473;-63
2022/09/13 02:28:58;;;;;;;19.90;8.90;;;;;;;12.25;76.09;98734.07;106077;1274;97188;-64
2022/09/13 02:31:44;;;;;;;20.50;8.70;;;;;;;12.24;75.97;98732.20;106183;1274;107989;-63
2022/09/13 02:34:20;;;;;;;18.30;9.00;;;;;;;12.23;76.08;98730.13;106006;1273;97873;-64
2022/09/13 02:36:52;;;;;;;17.70;9.00;;;;;;;12.21;76.09;98730.80;106091;1273;97955;-63
2022/09/13 02:39:26;;;;;;;18.90;8.70;;;;;;;12.19;76.03;98729.77;106022;1273;111380;-63
2022/09/13 02:42:11;;;;;;;18.40;8.90;;;;;;;12.18;76.01;98727.74;106110;1274;97854;-64
2022/09/13 02:44:45;;;;;;;19.00;9.00;;;;;;;12.14;76.00;98724.51;106116;1273;105906;-62
2022/09/13 02:47:26;;;;;;;18.60;8.20;;;;;;;12.08;75.91;98725.52;106046;1274;98002;-63
2022/09/13 02:50:00;;;;;;;17.80;8.20;;;;;;;12.00;75.81;98736.80;106091;1274;95552;-65
2022/09/13 02:52:50;;;;;;;18.00;8.40;;;;;;;11.93;76.02;98737.94;106109;1274;112029;-64
2022/09/13 02:55:47;;;;;;;18.80;8.60;;;;;;;11.87;75.80;98738.73;105958;1273;95514;-61
2022/09/13 02:58:21;;;;;;;15.80;7.20;;;;;;;11.82;75.93;98734.71;105964;1273;108229;-63
2022/09/13 03:00:56;;;;;;;17.00;7.40;;;;;;;11.78;75.88;98728.69;105970;1273;95362;-63
2022/09/13 03:03:27;;;;;;;16.20;7.60;;;;;;;11.78;76.13;98731.88;106058;1274;97969;-63
2022/09/13 03:05:55;;;;;;;18.30;8.00;;;;;;;11.80;76.03;98725.17;106088;1273;111488;-63
2022/09/13 03:08:28;;;;;;;18.50;7.50;;;;;;;11.83;76.09;98729.02;106115;1274;97882;-67
2022/09/13 03:11:07;;;;;;;19.60;7.90;;;;;;;11.85;76.13;98729.71;106046;1273;107896;-61
2022/09/13 03:13:54;;;;;;;16.90;7.70;;;;;;;11.86;76.02;98730.81;106058;1273;95247;-68
2022/09/13 03:17:01;;;;;;;21.00;8.60;;;;;;;11.88;76.14;98731.77;106047;1273;97985;-64
2022/09/13 03:19:48;;;;;;;17.10;8.30;;;;;;;11.89;76.15;98733.09;106068;1273;112087;-64
2022/09/13 03:22:41;;;;;;;20.50;8.50;;;;;;;11.90;76.24;98736.59;105993;1273;96469;-64
2022/09/13 03:25:34;;;;;;;19.60;8.30;;;;;;;11.90;76.21;98730.72;105945;1273;108395;-65
2022/09/13 03:28:37;;;;;;;19.00;8.70;;;;;;;11.89;76.17;98728.13;106058;1273;97829;-65
2022/09/13 03:31:41;;;;;;;18.00;7.60;;;;;;;11.89;76.18;98727.06;105971;1273;97861;-65
2022/09/13 03:34:39;;;;;;;21.10;8.70;;;;;;;11.89;76.09;98726.54;106110;1273;112047;-64
2022/09/13 03:37:24;;;;;;;17.90;8.00;;;;;;;11.88;76.07;98721.60;106155;1274;96399;-64
2022/09/13 03:40:10;;;;;;;18.60;8.60;;;;;;;11.87;76.11;98722.75;105956;1274;108669;-66
2022/09/13 03:42:49;;;;;;;18.70;7.90;;;;;;;11.85;76.01;98723.83;106023;1274;97880;-64
2022/09/13 03:45:25;;;;;;;17.90;7.70;;;;;;;11.83;75.97;98722.20;106078;1273;98586;-65
2022/09/13 03:47:55;;;;;;;17.50;8.10;;;;;;;11.80;76.07;98719.08;106063;1273;112466;-65
2022/09/13 03:50:26;;;;;;;18.80;8.30;;;;;;;11.78;76.01;98723.21;106186;1274;98241;-64
2022/09/13 03:53:09;;;;;;;15.40;7.50;;;;;;;11.74;75.98;98723.34;103658;1273;3285959;-64
2022/09/13 03:55:43;;;;;;;15.70;7.50;;;;;;;11.70;75.96;98723.09;106217;1273;97892;-66
2022/09/13 03:58:17;;;;;;;17.40;7.90;;;;;;;11.67;75.89;98722.48;106030;1273;95181;-66
2022/09/13 04:00:46;;;;;;;18.20;8.00;;;;;;;11.63;75.93;98721.35;106040;1273;111454;-66
2022/09/13 04:03:16;;;;;;;20.40;8.80;;;;;;;11.60;75.81;98724.30;105971;1273;97911;-65
2022/09/13 04:05:46;;;;;;;19.10;9.20;;;;;;;11.57;75.85;98719.59;106001;1273;107722;-66
2022/09/13 04:08:15;;;;;;;20.70;9.80;;;;;;;11.54;75.92;98725.17;105972;1274;96314;-65
2022/09/13 04:10:42;;;;;;;21.20;10.20;;;;;;;11.51;75.94;98725.21;105983;1273;98004;-66
2022/09/13 04:13:10;;;;;;;22.70;10.50;;;;;;;11.45;75.87;98725.84;106088;1274;113112;-65
2022/09/13 04:15:40;;;;;;;20.60;10.70;;;;;;;11.39;75.94;98724.73;105987;1273;95275;-64
2022/09/13 04:18:11;;;;;;;20.70;10.60;;;;;;;11.34;75.94;98721.23;106011;1274;108512;-65
2022/09/13 04:20:42;;;;;;;20.70;10.20;;;;;;;11.32;76.09;98714.61;105965;1273;97887;-65
2022/09/13 04:23:10;;;;;;;20.60;8.80;;;;;;;11.30;75.97;98710.20;106137;1274;98055;-65
2022/09/13 04:25:39;;;;;;;19.30;9.20;;;;;;;11.28;76.02;98709.45;106187;1274;112042;-66
2022/09/13 04:28:08;;;;;;;20.10;9.50;;;;;;;11.26;76.04;98704.83;106034;1273;95959;-65
2022/09/13 04:30:36;;;;;;;18.40;8.80;;;;;;;11.25;75.87;98706.16;105925;1273;106861;-64
2022/09/13 04:33:09;;;;;;;18.60;8.90;;;;;;;11.24;76.03;98706.80;105839;1274;97947;-64
2022/09/13 04:35:39;;;;;;;18.70;8.20;;;;;;;11.21;76.00;98701.76;105977;1274;97977;-64
2022/09/13 04:38:09;;;;;;;19.90;8.20;;;;;;;11.18;75.94;98702.34;106017;1274;112876;-64
2022/09/13 04:40:38;;;;;;;18.00;8.50;;;;;;;11.15;76.05;98704.12;105954;1273;97874;-64
2022/09/13 04:43:09;;;;;;;20.80;8.10;;;;;;;11.13;75.94;98707.29;106109;1274;108440;-64
2022/09/13 04:45:37;;;;;;;19.10;8.40;;;;;;;11.12;75.90;98713.27;106017;1274;97943;-64
2022/09/13 04:48:05;;;;;;;22.50;8.50;;;;;;;11.11;75.97;98712.98;105974;1274;97822;-65
2022/09/13 04:50:32;;;;;;;15.40;7.10;;;;;;;11.11;75.84;98712.27;105972;1274;112125;-64
2022/09/13 04:53:02;;;;;;;17.60;7.40;;;;;;;11.08;76.00;98710.37;106051;1274;96470;-64
2022/09/13 04:55:30;;;;;;;16.40;7.30;;;;;;;11.10;75.93;98714.27;106011;1273;110832;-61
2022/09/13 04:57:59;;;;;;;18.70;7.30;;;;;;;11.12;75.83;98714.84;106095;1274;97954;-63
2022/09/13 05:00:27;;;;;;;17.60;7.50;;;;;;;11.14;75.95;98712.88;106169;1274;97974;-64
2022/09/13 05:02:57;;;;;;;17.70;7.60;;;;;;;11.16;75.97;98713.44;106071;1273;112006;-63
2022/09/13 05:05:28;;;;;;;18.00;7.10;;;;;;;11.20;75.95;98716.17;106145;1274;95421;-63
2022/09/13 05:07:59;;;;;;;17.50;7.10;;;;;;;11.24;75.90;98717.29;106095;1274;108466;-65
2022/09/13 05:10:29;;;;;;;15.40;6.70;;;;;;;11.28;76.01;98716.92;106492;1273;98696;-66
2022/09/13 05:12:56;;;;;;;14.40;6.80;;;;;;;11.31;75.95;98712.98;106121;1274;96315;-65
2022/09/13 05:15:25;;;;;;;14.70;6.70;;;;;;;11.35;75.80;98713.36;106144;1274;111979;-62
2022/09/13 05:17:55;;;;;;;17.20;6.90;;;;;;;11.38;75.78;98713.64;106191;1274;95634;-63
2022/09/13 05:20:23;;;;;;;16.40;7.40;;;;;;;11.43;75.80;98715.70;106065;1274;107681;-65
2022/09/13 05:22:51;;;;;;;14.50;6.50;;;;;;;11.49;75.81;98709.05;106232;1273;97876;-64
2022/09/13 05:25:20;;;;;;;15.50;6.60;;;;;;;11.54;75.84;98712.86;106227;1274;97899;-63
2022/09/13 05:27:53;;;;;;;;;;;;;;;11.58;75.86;98710.29;106261;1274;111824;-64
2022/09/13 05:30:21;;;;;;;16.70;7.10;;;;;;;11.58;75.91;98706.73;106137;1274;97899;-63
2022/09/13 05:32:49;;;;;;;15.80;6.60;;;;;;;11.59;75.86;98703.80;106067;1274;108388;-64
2022/09/13 05:35:19;;;;;;;16.70;6.70;;;;;;;11.58;75.74;98704.54;106067;1274;97941;-65
2022/09/13 05:37:50;;;;;;;15.40;6.20;;;;;;;11.59;75.82;98702.52;106018;1273;97908;-64
2022/09/13 05:40:20;;;;;;;18.60;6.80;;;;;;;11.60;75.74;98704.60;106073;1274;111849;-64
2022/09/13 05:42:54;;;;;;;17.60;6.90;;;;;;;11.61;75.84;98705.90;106108;1274;96562;-63
2022/09/13 05:45:24;;;;;;;16.00;6.60;;;;;;;11.62;75.69;98705.09;106109;1274;108840;-64
2022/09/13 05:47:51;;;;;;;15.80;6.80;;;;;;;11.64;75.70;98704.30;106206;1274;97941;-66
2022/09/13 05:50:20;;;;;;;15.40;6.50;;;;;;;11.64;75.60;98705.51;106233;1274;97871;-67
2022/09/13 05:53:10;;;;;;;16.90;7.10;;;;;;;11.66;75.62;98704.48;106064;1274;112087;-66
2022/09/13 05:55:38;;;;;;;16.60;7.20;;;;;;;11.66;75.70;98698.79;106098;1274;97902;-65
2022/09/13 05:58:08;;;;;;;16.00;7.40;;;;;;;11.67;75.63;98696.02;106108;1274;106988;-65
2022/09/13 06:00:37;;;;;;;15.80;7.30;;;;;;;11.68;75.71;98693.60;106217;1274;95253;-65
2022/09/13 06:03:08;;;;;;;15.50;7.10;;;;;;;11.70;75.67;98691.89;106244;1274;97771;-65
2022/09/13 06:05:37;;;;;;;17.50;7.40;;;;;;;11.70;75.72;98690.47;106155;1274;111968;-65
2022/09/13 06:08:07;;;;;;;22.10;7.40;;;;;;;11.71;75.66;98688.02;106095;1274;97944;-69
2022/09/13 06:10:39;;;;;;;17.90;7.40;;;;;;;11.74;75.68;98686.69;105982;1274;108617;-67
2022/09/13 06:13:09;;;;;;;14.40;6.70;;;;;;;11.77;75.68;98687.22;106060;1274;97858;-65
2022/09/13 06:15:37;;;;;;;17.10;7.40;;;;;;;11.79;75.60;98688.63;106092;1274;97978;-65
2022/09/13 06:18:10;;;;;;;;;;;;;;;11.81;75.64;98685.25;106072;1274;111749;-65
2022/09/13 06:20:39;;;;;;;16.50;6.70;;;;;;;11.80;75.67;98688.20;106091;1273;97872;-63
2022/09/13 06:23:10;;;;;;;18.30;7.80;;;;;;;11.84;75.73;98684.88;106002;1273;107636;-64
2022/09/13 06:25:37;;;;;;;17.10;7.30;;;;;;;11.87;75.65;98682.99;106139;1274;95191;-64
2022/09/13 06:28:09;;;;;;;15.60;6.10;;;;;;;11.90;75.69;98685.55;106199;1274;97947;-65
2022/09/13 06:30:37;;;;;;;14.00;6.20;;;;;;;11.94;75.68;98687.06;106168;1274;111016;-64
2022/09/13 06:33:04;;;;;;;16.30;6.70;;;;;;;11.97;75.51;98685.70;106060;1274;96471;-65
2022/09/13 06:35:32;;;;;;;14.30;6.50;;;;;;;12.01;75.68;98684.19;106104;1274;108397;-64
2022/09/13 06:38:01;;;;;;;15.00;5.90;;;;;;;12.03;75.59;98682.69;106121;1273;97962;-64
2022/09/13 06:40:31;;;;;;;19.60;6.80;;;;;;;12.09;75.54;98684.23;106167;1274;97888;-65
2022/09/13 06:43:03;;;;;;;15.50;6.50;;;;;;;12.13;75.62;98689.04;106125;1274;112023;-63
2022/09/13 06:45:31;;;;;;;15.70;6.60;;;;;;;12.18;75.60;98690.39;106110;1272;97973;-65
2022/09/13 06:48:02;;;;;;;13.30;5.70;;;;;;;12.23;75.56;98690.97;106030;1274;108504;-65
2022/09/13 06:50:30;;;;;;;13.20;6.10;;;;;;;12.28;75.69;98691.08;106052;1274;98711;-65
2022/09/13 06:52:59;;;;;;;15.40;6.60;;;;;;;12.33;75.53;98692.31;106020;1275;97832;-64
2022/09/13 06:55:26;;;;;;;15.80;6.30;;;;;;;12.37;75.59;98694.25;106023;1274;112010;-63
2022/09/13 06:57:59;;;;;;;15.90;6.30;;;;;;;12.42;75.56;98694.70;106108;1273;97851;-65
2022/09/13 07:00:29;;;;;;;17.20;7.30;;;;;;;12.47;75.56;98693.56;106126;1274;108679;-64
2022/09/13 07:02:59;;;;;;;18.20;7.90;;;;;;;12.53;75.48;98693.77;106086;1274;97842;-64
2022/09/13 07:05:29;;;;;;;15.00;7.00;;;;;;;12.58;75.41;98693.52;106158;1274;97865;-65
2022/09/13 07:07:59;;;;;;;13.40;6.00;;;;;;;12.65;75.41;98698.45;106103;1275;112022;-64
2022/09/13 07:10:29;;;;;;;16.40;6.70;;;;;;;12.71;75.43;98692.75;106093;1274;96450;-64
2022/09/13 07:12:58;;;;;;;14.30;6.00;;;;;;;12.77;75.42;98695.05;106021;1274;108181;-64
2022/09/13 07:15:30;;;;;;;16.60;6.10;;;;;;;12.84;75.39;98700.00;106061;1275;97885;-64
2022/09/13 07:17:58;;;;;;;17.40;6.00;;;;;;;12.90;75.32;98702.10;106142;1273;97957;-64
2022/09/13 07:20:27;;;;;;;15.40;5.70;;;;;;;12.98;75.37;98700.70;106135;1274;111942;-65
2022/09/13 07:22:55;;;;;;;13.10;6.00;;;;;;;13.08;75.34;98702.55;106030;1274;96296;-64
2022/09/13 07:25:24;;;;;;;16.00;5.90;;;;;;;13.20;75.35;98694.34;106015;1274;108345;-64
2022/09/13 07:27:52;;;;;;;12.80;6.00;;;;;;;13.39;75.30;98692.98;106011;1274;97907;-64
2022/09/13 07:30:22;;;;;;;14.10;5.90;;;;;;;14.38;73.94;98689.61;105990;1274;98002;-64
2022/09/13 07:32:52;;;;;;;16.30;6.10;;;;;;;16.15;71.85;98689.06;105990;1275;112212;-66
2022/09/13 07:35:21;;;;;;;15.90;6.40;;;;;;;17.77;71.47;98683.16;106066;1273;96406;-64
2022/09/13 07:37:49;;;;;;;14.70;5.70;;;;;;;19.29;71.28;98682.29;105999;1275;108236;-63
2022/09/13 07:40:18;;;;;;;12.00;5.20;;;;;;;20.63;70.82;98679.01;106040;1274;98177;-64
2022/09/13 07:42:48;;;;;;;12.40;5.30;;;;;;;21.83;70.51;98681.79;106147;1273;97969;-64
2022/09/13 07:45:18;;;;;;;12.80;5.40;;;;;;;22.99;70.17;98675.48;106144;1274;110974;-62
2022/09/13 07:47:52;;;;;;;12.00;5.60;;;;;;;24.12;69.74;98678.13;106103;1274;97911;-65
2022/09/13 07:50:24;;;;;;;10.70;4.50;;;;;;;25.14;69.15;98681.70;105993;1275;108634;-63
2022/09/13 07:52:53;;;;;;;11.60;5.70;;;;;;;25.72;68.54;98681.11;106039;1273;95625;-64
2022/09/13 07:55:22;;;;;;;13.20;5.20;;;;;;;26.55;68.76;98674.85;106035;1274;97841;-65
2022/09/13 07:57:51;;;;;;;12.70;5.20;;;;;;;27.44;68.73;98678.23;105998;1274;112444;-65
2022/09/13 08:00:19;;;;;;;11.70;5.00;;;;;;;28.22;68.62;98679.59;106035;1274;97740;-67
2022/09/13 08:02:49;;;;;;;10.70;4.80;;;;;;;29.02;68.41;98681.38;106074;1273;109027;-64
2022/09/13 08:05:19;;;;;;;13.00;4.90;;;;;;;29.65;68.22;98689.95;106047;1273;97893;-64
2022/09/13 08:07:48;;;;;;;11.10;4.30;;;;;;;30.20;67.87;98691.46;106029;1274;97888;-67
2022/09/13 08:10:15;;;;;;;9.40;3.90;;;;;;;30.31;67.14;98689.94;105981;1275;112115;-63
2022/09/13 08:12:43;;;;;;;10.40;4.20;;;;;;;30.70;67.39;98685.34;106088;1273;96309;-66
2022/09/13 08:15:12;;;;;;;10.60;4.30;;;;;;;31.23;67.60;98683.02;106048;1275;108437;-65
2022/09/13 08:17:40;;;;;;;8.50;4.20;;;;;;;31.34;66.87;98682.21;106065;1274;95261;-65
2022/09/13 08:20:10;;;;;;;9.70;4.30;;;;;;;31.59;67.01;98680.21;106146;1275;97873;-65
2022/09/13 08:22:40;;;;;;;8.50;4.10;;;;;;;32.05;66.54;98683.14;106017;1274;112253;-67
2022/09/13 08:25:10;;;;;;;10.00;4.20;;;;;;;32.18;65.72;98680.16;106023;1276;99526;-62
2022/09/13 08:27:39;;;;;;;10.20;3.50;;;;;;;32.36;66.00;98675.74;106109;1273;108278;-64
2022/09/13 08:30:10;;;;;;;7.00;2.90;;;;;;;32.52;66.30;98668.90;106139;1273;97908;-65
2022/09/13 08:32:39;;;;;;;3.40;2.30;;;;;;;32.64;65.26;98677.73;106164;1274;97976;-64
2022/09/13 08:35:09;;;;;;;3.20;2.20;;;;;;;32.75;64.43;98676.45;106124;1273;111947;-65
2022/09/13 08:37:39;;;;;;;6.60;3.30;;;;;;;32.13;64.08;98673.45;106154;1273;98604;-65
2022/09/13 08:40:10;;;;;;;4.70;3.00;;;;;;;31.61;63.81;98675.73;106149;1274;108442;-64
2022/09/13 08:42:44;;;;;;;6.50;2.90;;;;;;;31.69;63.09;98669.98;106159;1274;98505;-65
2022/09/13 08:45:15;;;;;;;7.80;3.20;;;;;;;31.91;62.79;98671.02;106110;1274;97884;-65
2022/09/13 08:48:13;;;;;;;5.40;3.20;;;;;;;31.71;62.10;98668.30;105977;1274;112218;-66
2022/09/13 08:50:44;;;;;;;7.50;3.50;;;;;;;31.62;60.90;98671.30;106208;1274;96229;-66
2022/09/13 08:53:12;;;;;;;;;;;;;;;31.12;60.37;98668.31;106102;1275;107902;-68
2022/09/13 08:56:03;;;;;;;;;;;;;;;31.33;60.00;98668.52;106101;1274;95198;-66
2022/09/13 08:58:58;;;;;;;6.70;3.20;;;;;;;31.25;59.41;98665.73;106103;1273;97919;-65
2022/09/13 09:02:10;;;;;;;5.80;3.00;;;;;;;30.38;58.80;98662.27;106077;1274;112023;-65
2022/09/13 09:04:49;;;;;;;5.30;2.50;;;;;;;30.47;58.05;98661.48;106020;1274;98543;-66
2022/09/13 09:07:26;;;;;;;7.00;2.60;;;;;;;30.66;57.97;98652.31;106001;1274;108565;-66
2022/09/13 09:10:14;;;;;;;5.70;2.70;;;;;;;30.24;57.37;98658.51;106116;1274;95359;-66
2022/09/13 09:12:58;;;;;;;4.60;2.60;;;;;;;29.88;56.85;98658.51;106083;1274;97750;-65
2022/09/13 09:15:41;;;;;;;10.60;3.40;;;;;;;29.44;56.46;98657.34;105997;1274;111337;-66
2022/09/13 09:18:22;;;;;;;6.80;3.00;;;;;;;29.35;55.89;98652.58;106117;1275;98385;-64
2022/09/13 09:20:59;;;;;;;6.10;2.70;;;;;;;29.00;55.70;98648.22;106114;1274;107791;-66
2022/09/13 09:23:46;;;;;;;6.20;3.20;;;;;;;28.90;54.87;98653.61;106096;1274;95349;-65
2022/09/13 09:26:22;;;;;;;6.90;3.10;;;;;;;29.08;54.16;98650.08;106143;1274;95293;-66
2022/09/13 09:28:59;;;;;;;7.40;2.90;;;;;;;29.11;54.08;98640.11;106127;1274;111443;-64
2022/09/13 09:31:43;;;;;;;5.50;2.60;;;;;;;29.02;53.57;98638.89;106112;1274;97022;-65
2022/09/13 09:34:54;;;;;;;5.30;2.90;;;;;;;29.31;53.47;98639.23;106100;1277;108442;-68
2022/09/13 09:37:28;;;;;;;7.80;2.80;;;;;;;29.77;52.93;98635.02;105994;1275;97964;-64
2022/09/13 09:40:06;;;;;;;7.10;3.00;;;;;;;30.16;53.03;98638.08;105972;1274;97835;-65
2022/09/13 09:42:47;;;;;;;9.70;3.30;;;;;;;30.41;52.42;98638.39;106066;1274;111358;-64
2022/09/13 09:45:32;;;;;;;6.40;2.90;;;;;;;29.95;52.52;98640.80;106101;1274;98584;-65
2022/09/13 09:48:13;;;;;;;7.00;2.90;;;;;;;29.24;52.36;98642.27;106063;1274;107641;-65
2022/09/13 09:50:57;;;;;;;7.90;3.30;;;;;;;28.08;51.69;98639.16;106048;1275;95239;-65
2022/09/13 09:53:42;;;;;;;6.40;3.30;;;;;;;27.13;51.22;98629.88;106097;1274;97823;-64
2022/09/13 09:56:32;;;;;;;6.00;2.90;;;;;;;26.64;51.33;98625.09;106118;1274;112150;-63
2022/09/13 09:59:01;;;;;;;4.00;2.80;;;;;;;26.12;50.96;98625.91;106118;1274;98290;-65
2022/09/13 10:01:36;;;;;;;5.60;3.10;;;;;;;25.69;50.54;98627.21;106039;1274;107019;-64
2022/09/13 10:04:09;;;;;;;6.20;3.00;;;;;;;25.09;49.73;98631.70;106079;1274;96326;-64
2022/09/13 10:06:45;;;;;;;8.90;3.20;;;;;;;24.36;49.46;98627.78;106021;1274;97889;-64
2022/09/13 10:09:13;;;;;;;6.90;3.20;;;;;;;23.76;49.32;98630.70;106009;1274;111445;-64
2022/09/13 10:11:46;;;;;;;8.50;3.60;;;;;;;23.35;49.36;98616.63;106117;1274;98338;-62
2022/09/13 10:14:44;;;;;;;5.90;3.70;;;;;;;23.03;49.20;98619.02;106061;1274;108266;-64
2022/09/13 10:17:19;;;;;;;9.00;3.40;;;;;;;22.80;48.90;98617.13;106103;1274;97975;-63
2022/09/13 10:20:03;;;;;;;6.80;3.00;;;;;;;22.75;48.87;98613.79;106095;1274;98086;-62
2022/09/13 10:22:34;;;;;;;8.40;3.50;;;;;;;22.72;48.65;98608.76;106032;1274;113131;-64
2022/09/13 10:25:25;;;;;;;7.60;3.80;;;;;;;22.67;48.63;98605.48;106045;1274;95487;-64
2022/09/13 10:27:59;;;;;;;7.10;3.10;;;;;;;22.44;48.19;98605.53;106091;1274;107799;-64
2022/09/13 10:30:59;;;;;;;9.10;3.20;;;;;;;22.15;48.25;98607.17;106114;1274;97779;-64
2022/09/13 10:33:39;;;;;;;5.90;3.20;;;;;;;21.89;47.93;98607.08;106092;1274;98014;-64
2022/09/13 10:36:37;;;;;;;7.80;2.80;;;;;;;21.74;47.93;98610.66;106015;1274;111942;-65
2022/09/13 10:39:29;;;;;;;7.00;3.60;;;;;;;21.71;47.93;98610.29;106018;1274;98559;-65
2022/09/13 10:42:06;;;;;;;8.70;3.20;;;;;;;21.71;48.01;98607.68;105972;1274;108467;-65
2022/09/13 10:44:54;;;;;;;6.60;3.50;;;;;;;21.83;47.88;98605.56;106098;1274;98009;-65
2022/09/13 10:47:47;;;;;;;8.00;3.60;;;;;;;21.92;48.10;98600.10;106081;1274;97934;-65
2022/09/13 10:50:27;;;;;;;5.40;3.30;;;;;;;21.88;47.72;98600.58;106071;1274;112163;-64
2022/09/13 10:53:02;;;;;;;7.60;3.40;;;;;;;21.78;47.85;98603.23;106084;1274;97889;-64
2022/09/13 10:55:42;;;;;;;4.70;3.10;;;;;;;21.69;47.49;98602.80;106077;1274;107889;-64
2022/09/13 10:58:18;;;;;;;9.20;3.30;;;;;;;21.60;47.25;98608.06;106061;1274;98632;-67
2022/09/13 11:01:01;;;;;;;7.40;3.50;;;;;;;21.39;47.33;98606.02;106169;1274;97854;-65
2022/09/13 11:04:06;;;;;;;7.10;3.10;;;;;;;21.12;47.28;98613.82;106132;1274;112122;-66
2022/09/13 11:07:24;;;;;;;9.60;3.70;;;;;;;20.87;47.32;98611.75;106168;1276;97976;-65
2022/09/13 11:09:59;;;;;;;8.10;3.40;;;;;;;20.68;47.00;98609.21;105784;1281;108516;-64
2022/09/13 11:12:47;;;;;;;7.70;3.50;;;;;;;20.56;47.08;98604.07;105725;1280;95512;-64
2022/09/13 11:15:49;;;;;;;8.90;3.30;;;;;;;20.45;46.94;98605.06;106039;1274;96999;-63
2022/09/13 11:18:33;;;;;;;6.80;3.30;;;;;;;20.37;46.84;98605.94;106042;1274;111944;-64
2022/09/13 11:21:22;;;;;;;4.10;3.00;;;;;;;20.34;46.99;98599.27;105997;1274;98679;-64
2022/09/13 11:24:20;;;;;;;6.80;3.10;;;;;;;20.38;46.93;98595.52;106078;1276;108345;-64
2022/09/13 11:27:21;;;;;;;6.40;3.00;;;;;;;20.37;46.85;98586.11;106136;1274;95294;-65
2022/09/13 11:30:11;;;;;;;6.80;2.70;;;;;;;20.33;46.81;98586.11;106078;1274;97893;-63
2022/09/13 11:33:32;;;;;;;4.10;2.70;;;;;;;20.31;46.91;98588.08;106098;1275;111448;-63
2022/09/13 11:36:41;;;;;;;6.70;3.20;;;;;;;20.23;46.84;98583.17;105640;1284;98054;-64
2022/09/13 11:39:45;;;;;;;6.40;3.30;;;;;;;20.10;46.78;98582.54;105268;1284;108950;-64
2022/09/13 11:42:25;;;;;;;8.20;3.10;;;;;;;20.04;46.85;98579.74;106051;1276;97775;-65
2022/09/13 11:45:19;;;;;;;5.10;3.30;;;;;;;20.02;46.83;98578.15;106136;1274;97889;-64
2022/09/13 11:48:20;;;;;;;7.00;3.30;;;;;;;20.01;46.91;98577.38;106118;1274;111381;-64
2022/09/13 11:50:59;;;;;;;5.70;3.40;;;;;;;20.02;46.93;98572.70;106028;1274;97889;-64
2022/09/13 11:53:36;;;;;;;9.30;3.60;;;;;;;20.00;46.65;98569.86;105988;1274;108806;-63
2022/09/13 11:56:17;;;;;;;7.20;3.10;;;;;;;19.95;46.89;98562.40;106080;1277;95191;-64
2022/09/13 11:58:54;;;;;;;4.30;3.00;;;;;;;20.04;47.03;98561.34;106099;1274;97871;-64
2022/09/13 12:01:39;;;;;;;8.70;3.50;;;;;;;20.14;46.97;98560.33;106195;1274;111491;-64